»·PEaware :: AWE2180 KPHX-KLGB

AWE2180 :: KPHX-KLGB

FLIGHT INFORMATION

Flight Status: Arrived
Operator:
US Airways
More flights by this operator :: More flights under this callsign
Pilot: Jim M. (18055)
Aircraft: BOEING 737-300
(B733)
More flights by this aircraft type
Origin: KPHX Phoenix Sky Harbor Intl
United States
Destination: KLGB Long Beach
United States
More flights between these airports :: More routes between these airports
Route: +KEENS2 HRRBR EMLLD DSNEE4
File this flight plan on PilotEdge
Remarks:
Altitude:
(Current/Filed)
32,000ft
Speed:
(Current/Filed)
450kts
Departed: 05-Nov-18 12:23 PM
Arrived: 05-Nov-18 01:26 PM
Distance/Time
Traveled:
307nm/1:02
Distance/Time
To Go:
Arrived

Flight Plot

Page will automatically refresh every two minutes.


Map Options




Map Legend


Flown Route
Filed Route
Departure Airport
Arrival Airport
Navaid (VOR, NDB)
Fix

Horizontal Profiles

Position Reports

Time Latitude Longitude Heading Altitude Ground
Speed
05-Nov-18 12:00 33.437182 -111.997326 92 1130ft 0kts
05-Nov-18 12:01 33.437182 -111.997326 92 1130ft 0kts
05-Nov-18 12:02 33.437182 -111.997326 92 1130ft 0kts
05-Nov-18 12:03 33.437182 -111.997326 92 1130ft 0kts
05-Nov-18 12:04 33.437182 -111.997326 92 1130ft 0kts
05-Nov-18 12:05 33.437182 -111.997326 92 1130ft 0kts
05-Nov-18 12:06 33.437182 -111.997326 92 1130ft 0kts
05-Nov-18 12:07 33.437182 -111.997326 92 1130ft 0kts
05-Nov-18 12:08 33.437182 -111.997326 92 1130ft 0kts
05-Nov-18 12:09 33.437182 -111.997326 92 1130ft 0kts
05-Nov-18 12:10 33.437182 -111.997326 92 1130ft 0kts
05-Nov-18 12:11 33.437182 -111.997326 92 1130ft 0kts
05-Nov-18 12:12 33.437185 -111.997376 91 1130ft 2kts
05-Nov-18 12:13 33.436811 -111.997878 7 1129ft 2kts
05-Nov-18 12:14 33.436610 -111.997875 359 1129ft 0kts
05-Nov-18 12:15 33.436610 -111.997875 359 1129ft 0kts
05-Nov-18 12:16 33.436610 -111.997875 359 1129ft 0kts
05-Nov-18 12:17 33.436623 -111.997875 359 1129ft 0kts
05-Nov-18 12:18 33.438266 -111.997824 358 1132ft 0kts
05-Nov-18 12:19 33.438290 -111.997825 359 1132ft 0kts
05-Nov-18 12:20 33.439031 -112.001192 269 1129ft 19kts
05-Nov-18 12:21 33.438998 -112.007614 271 1129ft 16kts
05-Nov-18 12:22 33.439000 -112.014718 270 1123ft 26kts
05-Nov-18 12:23 33.439001 -112.024478 271 1116ft 33kts
05-Nov-18 12:24 33.439429 -112.029661 350 1113ft 6kts
05-Nov-18 12:25 33.440048 -112.029724 358 1113ft 11kts
05-Nov-18 12:26 33.441012 -112.010228 90 1248ft 166kts
05-Nov-18 12:27 33.440067 -111.945151 93 3733ft 231kts
05-Nov-18 12:28 33.428244 -111.868350 134 7049ft 258kts
05-Nov-18 12:29 33.364560 -111.859630 227 10221ft 257kts
05-Nov-18 12:30 33.356995 -111.936173 278 13513ft 243kts
05-Nov-18 12:31 33.366681 -112.031433 281 14646ft 330kts
05-Nov-18 12:32 33.382982 -112.140736 281 17844ft 340kts
05-Nov-18 12:33 33.399322 -112.250713 281 20837ft 346kts
05-Nov-18 12:34 33.416265 -112.365455 282 22900ft 356kts
05-Nov-18 12:35 33.433408 -112.482372 282 24915ft 363kts
05-Nov-18 12:36 33.450415 -112.602089 277 27049ft 374kts
05-Nov-18 12:37 33.452066 -112.728234 273 29111ft 383kts
05-Nov-18 12:38 33.461799 -112.850041 284 31665ft 366kts
05-Nov-18 12:39 33.484890 -112.972384 283 31974ft 385kts
05-Nov-18 12:40 33.508417 -113.098079 283 31985ft 388kts
05-Nov-18 12:41 33.531728 -113.223427 283 31980ft 388kts
05-Nov-18 12:42 33.554914 -113.349254 283 31981ft 388kts
05-Nov-18 12:43 33.577756 -113.474163 283 31981ft 388kts
05-Nov-18 12:44 33.600334 -113.596683 283 31974ft 388kts
05-Nov-18 12:45 33.622567 -113.716112 283 31958ft 388kts
05-Nov-18 12:46 33.645977 -113.842342 283 31944ft 388kts
05-Nov-18 12:47 33.686910 -113.961238 294 31945ft 388kts
05-Nov-18 12:48 33.732284 -114.078607 294 31944ft 388kts
05-Nov-18 12:49 33.765039 -114.200783 278 31948ft 388kts
05-Nov-18 12:50 33.779612 -114.329351 279 31944ft 388kts
05-Nov-18 12:51 33.794558 -114.457656 279 31944ft 388kts
05-Nov-18 12:52 33.809372 -114.585840 279 31944ft 388kts
05-Nov-18 12:53 33.824069 -114.714394 279 31945ft 388kts
05-Nov-18 12:54 33.838644 -114.842976 279 31945ft 388kts
05-Nov-18 12:55 33.852739 -114.971808 278 31944ft 388kts
05-Nov-18 12:56 33.866991 -115.100774 278 31944ft 390kts
05-Nov-18 12:57 33.881289 -115.230151 278 31944ft 392kts
05-Nov-18 12:58 33.895469 -115.359700 278 31929ft 391kts
05-Nov-18 12:59 33.909551 -115.489616 278 31916ft 392kts
05-Nov-18 13:00 33.923515 -115.619765 278 31917ft 392kts
05-Nov-18 13:01 33.933035 -115.744946 275 31930ft 392kts
05-Nov-18 13:02 33.942255 -115.875152 276 31933ft 392kts
05-Nov-18 13:03 33.951445 -116.005625 276 31941ft 392kts
05-Nov-18 13:04 33.960458 -116.135446 276 29079ft 393kts
05-Nov-18 13:05 33.957694 -116.263339 263 26681ft 381kts
05-Nov-18 13:06 33.941776 -116.389008 264 24455ft 371kts
05-Nov-18 13:07 33.926800 -116.510266 264 22339ft 367kts
05-Nov-18 13:08 33.911689 -116.628570 263 20253ft 361kts
05-Nov-18 13:09 33.898680 -116.729453 263 18499ft 342kts
05-Nov-18 13:10 33.885969 -116.840760 264 16192ft 347kts
05-Nov-18 13:11 33.873598 -116.954067 264 13675ft 339kts
05-Nov-18 13:12 33.861683 -117.061241 264 12073ft 310kts
05-Nov-18 13:13 33.850985 -117.157440 263 10945ft 271kts
05-Nov-18 13:14 33.841099 -117.246419 265 9940ft 266kts
05-Nov-18 13:15 33.831331 -117.333547 265 9453ft 266kts
05-Nov-18 13:16 33.821616 -117.419308 265 8008ft 247kts
05-Nov-18 13:17 33.802580 -117.498981 252 7188ft 249kts
05-Nov-18 13:18 33.778628 -117.576868 252 7221ft 247kts
05-Nov-18 13:19 33.756028 -117.651519 253 6209ft 242kts
05-Nov-18 13:20 33.775168 -117.721766 281 4998ft 228kts
05-Nov-18 13:21 33.757909 -117.792612 250 5028ft 214kts
05-Nov-18 13:22 33.737595 -117.856769 250 4568ft 206kts
05-Nov-18 13:23 33.718022 -117.920141 250 3171ft 199kts
05-Nov-18 13:24 33.701326 -117.977754 264 3037ft 178kts
05-Nov-18 13:25 33.717066 -118.031225 311 2728ft 169kts
05-Nov-18 13:26 33.747207 -118.066311 314 1829ft 140kts
05-Nov-18 13:27 33.774541 -118.099116 314 1077ft 138kts
05-Nov-18 13:28 33.801245 -118.131717 314 324ft 137kts
05-Nov-18 13:29 33.819750 -118.153757 317 47ft 34kts
05-Nov-18 13:30 33.821611 -118.154565 76 50ft 0kts
05-Nov-18 13:31 33.821653 -118.153341 92 49ft 13kts
05-Nov-18 13:32 33.821269 -118.147116 151 43ft 20kts
05-Nov-18 13:33 33.818544 -118.146941 176 40ft 5kts
05-Nov-18 13:34 33.818206 -118.146162 89 39ft 0kts
05-Nov-18 13:35 33.818206 -118.146162 89 39ft 0kts
05-Nov-18 13:36 33.818206 -118.146162 89 39ft 0kts

Navigation Log

Ident Type
Flight plan parsing failed, navigation log unavailable